sensor_id;sensor_type;location;lat;lon;timestamp;pressure;altitude;pressure_sealevel;temperature;humidity
68669;BME280;55652;49.454;7.798;2022-07-06T15:57:39;99319.06;;;26.41;39.99
68669;BME280;55652;49.454;7.798;2022-07-06T16:00:06;99321.81;;;26.46;39.48
68669;BME280;55652;49.454;7.798;2022-07-06T16:02:31;99318.88;;;26.52;40.35
68669;BME280;55652;49.454;7.798;2022-07-06T16:04:56;99316.97;;;26.63;38.78
68669;BME280;55652;49.454;7.798;2022-07-06T16:07:22;99317.00;;;26.73;38.04
68669;BME280;55652;49.454;7.798;2022-07-06T16:09:47;99318.41;;;26.81;38.55
68669;BME280;55652;49.454;7.798;2022-07-06T16:12:13;99312.09;;;26.91;38.60
68669;BME280;55652;49.454;7.798;2022-07-06T16:14:38;99312.13;;;27.01;38.93
68669;BME280;55652;49.454;7.798;2022-07-06T16:17:04;99307.75;;;27.10;38.84
68669;BME280;55652;49.454;7.798;2022-07-06T16:19:29;99317.63;;;27.16;39.52
68669;BME280;55652;49.454;7.798;2022-07-06T16:21:54;99310.78;;;27.24;38.16
68669;BME280;55652;49.454;7.798;2022-07-06T16:24:20;99303.38;;;27.30;37.55
68669;BME280;55652;49.454;7.798;2022-07-06T16:26:45;99302.28;;;27.36;37.36
68669;BME280;55652;49.454;7.798;2022-07-06T16:29:11;99303.91;;;27.42;38.51
68669;BME280;55652;49.454;7.798;2022-07-06T16:31:36;99302.00;;;27.48;37.77
68669;BME280;55652;49.454;7.798;2022-07-06T16:34:01;99305.00;;;27.51;37.82
68669;BME280;55652;49.454;7.798;2022-07-06T16:36:27;99299.53;;;27.56;37.58
68669;BME280;55652;49.454;7.798;2022-07-06T16:38:52;99309.69;;;27.61;37.97
68669;BME280;55652;49.454;7.798;2022-07-06T16:41:20;99303.34;;;27.65;37.99
68669;BME280;55652;49.454;7.798;2022-07-06T16:43:46;99297.28;;;27.68;37.92
68669;BME280;55652;49.454;7.798;2022-07-06T16:46:12;99298.66;;;27.76;38.13
68669;BME280;55652;49.454;7.798;2022-07-06T16:48:38;99303.59;;;27.89;38.57
68669;BME280;55652;49.454;7.798;2022-07-06T16:51:03;99297.81;;;28.01;39.62
68669;BME280;55652;49.454;7.798;2022-07-06T16:53:29;99302.69;;;28.15;40.06
68669;BME280;55652;49.454;7.798;2022-07-06T16:55:54;99298.00;;;28.25;40.66
68669;BME280;55652;49.454;7.798;2022-07-06T16:58:20;99295.72;;;28.38;40.37
68669;BME280;55652;49.454;7.798;2022-07-06T17:00:46;99302.56;;;28.40;38.96
68669;BME280;55652;49.454;7.798;2022-07-06T17:03:11;99297.09;;;28.45;38.04
68669;BME280;55652;49.454;7.798;2022-07-06T17:05:36;99292.94;;;28.48;37.73
68669;BME280;55652;49.454;7.798;2022-07-06T17:08:02;99294.81;;;28.58;37.65
68669;BME280;55652;49.454;7.798;2022-07-06T17:10:27;99289.00;;;28.64;37.44
68669;BME280;55652;49.454;7.798;2022-07-06T17:12:52;99283.50;;;28.64;37.90
68669;BME280;55652;49.454;7.798;2022-07-06T17:15:18;99279.09;;;28.68;37.98
68669;BME280;55652;49.454;7.798;2022-07-06T17:17:43;99279.34;;;28.67;37.86
68669;BME280;55652;49.454;7.798;2022-07-06T17:20:09;99278.00;;;28.64;37.86
68669;BME280;55652;49.454;7.798;2022-07-06T17:22:37;99275.56;;;28.63;37.46
68669;BME280;55652;49.454;7.798;2022-07-06T17:25:03;99279.13;;;28.63;37.38
68669;BME280;55652;49.454;7.798;2022-07-06T17:27:29;99284.63;;;28.63;37.50
68669;BME280;55652;49.454;7.798;2022-07-06T17:29:54;99279.97;;;28.59;38.29
68669;BME280;55652;49.454;7.798;2022-07-06T17:32:19;99284.63;;;28.63;38.64
68669;BME280;55652;49.454;7.798;2022-07-06T17:34:45;99283.78;;;28.68;38.34
68669;BME280;55652;49.454;7.798;2022-07-06T17:37:12;99279.34;;;28.67;37.95
68669;BME280;55652;49.454;7.798;2022-07-06T17:39:37;99282.97;;;28.67;37.96
68669;BME280;55652;49.454;7.798;2022-07-06T17:42:03;99278.84;;;28.65;36.15
68669;BME280;55652;49.454;7.798;2022-07-06T17:44:28;99282.44;;;28.60;35.58
68669;BME280;55652;49.454;7.798;2022-07-06T17:46:54;99286.00;;;28.61;36.75
68669;BME280;55652;49.454;7.798;2022-07-06T17:49:20;99278.84;;;28.65;33.37
68669;BME280;55652;49.454;7.798;2022-07-06T17:51:46;99276.69;;;28.57;33.82
68669;BME280;55652;49.454;7.798;2022-07-06T17:54:11;99281.06;;;28.58;35.01
68669;BME280;55652;49.454;7.798;2022-07-06T17:56:37;99277.78;;;28.56;35.08
68669;BME280;55652;49.454;7.798;2022-07-06T17:59:02;99271.47;;;28.55;34.52
68669;BME280;55652;49.454;7.798;2022-07-06T18:01:27;99275.84;;;28.56;32.41
68669;BME280;55652;49.454;7.798;2022-07-06T18:03:53;99286.59;;;28.58;33.88
68669;BME280;55652;49.454;7.798;2022-07-06T18:06:19;99277.19;;;28.64;34.11
68669;BME280;55652;49.454;7.798;2022-07-06T18:08:44;99278.53;;;28.66;34.40
68669;BME280;55652;49.454;7.798;2022-07-06T18:11:10;99273.00;;;28.71;34.26
68669;BME280;55652;49.454;7.798;2022-07-06T18:13:38;99278.25;;;28.73;34.73
68669;BME280;55652;49.454;7.798;2022-07-06T18:16:04;99277.69;;;28.71;35.21
68669;BME280;55652;49.454;7.798;2022-07-06T18:18:30;99280.72;;;28.69;33.86
68669;BME280;55652;49.454;7.798;2022-07-06T18:20:55;99282.47;;;28.55;33.02
68669;BME280;55652;49.454;7.798;2022-07-06T18:23:23;99276.19;;;28.49;33.02
68669;BME280;55652;49.454;7.798;2022-07-06T18:25:49;99277.78;;;28.56;35.48
68669;BME280;55652;49.454;7.798;2022-07-06T18:28:14;99278.84;;;28.65;36.75
68669;BME280;55652;49.454;7.798;2022-07-06T18:30:44;99281.63;;;28.60;37.30
68669;BME280;55652;49.454;7.798;2022-07-06T18:33:12;99281.09;;;28.52;37.47
68669;BME280;55652;49.454;7.798;2022-07-06T18:35:38;99277.81;;;28.50;37.72
68669;BME280;55652;49.454;7.798;2022-07-06T18:38:05;99275.63;;;28.42;37.87
68669;BME280;55652;49.454;7.798;2022-07-06T18:40:31;99275.63;;;28.42;38.06
68669;BME280;55652;49.454;7.798;2022-07-06T18:42:56;99275.09;;;28.35;38.41
68669;BME280;55652;49.454;7.798;2022-07-06T18:45:21;99276.78;;;28.31;38.46
68669;BME280;55652;49.454;7.798;2022-07-06T18:47:50;99286.41;;;28.28;38.67
68669;BME280;55652;49.454;7.798;2022-07-06T18:50:16;99280.94;;;28.28;38.81
68669;BME280;55652;49.454;7.798;2022-07-06T18:52:42;99285.31;;;28.24;38.92
68669;BME280;55652;49.454;7.798;2022-07-06T18:55:11;99285.06;;;28.26;39.09
68669;BME280;55652;49.454;7.798;2022-07-06T18:57:36;99284.25;;;28.25;39.09
68669;BME280;55652;49.454;7.798;2022-07-06T19:00:03;99286.19;;;28.25;39.09
68669;BME280;55652;49.454;7.798;2022-07-06T19:02:30;99281.75;;;28.24;39.14
68669;BME280;55652;49.454;7.798;2022-07-06T19:04:57;99276.81;;;28.21;39.14
68669;BME280;55652;49.454;7.798;2022-07-06T19:07:28;99272.69;;;28.23;39.01
68669;BME280;55652;49.454;7.798;2022-07-06T19:09:53;99272.16;;;28.21;39.12
68669;BME280;55652;49.454;7.798;2022-07-06T19:12:18;99275.72;;;28.22;39.10
68669;BME280;55652;49.454;7.798;2022-07-06T19:14:43;99271.34;;;28.21;38.95
68669;BME280;55652;49.454;7.798;2022-07-06T19:17:09;99274.91;;;28.21;38.75
68669;BME280;55652;49.454;7.798;2022-07-06T19:19:34;99282.88;;;28.23;39.27
68669;BME280;55652;49.454;7.798;2022-07-06T19:21:59;99278.47;;;28.22;39.25
68669;BME280;55652;49.454;7.798;2022-07-06T19:24:25;99272.97;;;28.22;38.90
68669;BME280;55652;49.454;7.798;2022-07-06T19:26:51;99284.50;;;28.24;38.62
68669;BME280;55652;49.454;7.798;2022-07-06T19:29:16;99291.13;;;28.18;38.61
68669;BME280;55652;49.454;7.798;2022-07-06T19:31:42;99291.13;;;28.18;38.44
68669;BME280;55652;49.454;7.798;2022-07-06T19:34:08;99289.50;;;28.17;38.40
68669;BME280;55652;49.454;7.798;2022-07-06T19:36:33;99282.91;;;28.18;38.48
68669;BME280;55652;49.454;7.798;2022-07-06T19:38:58;99286.22;;;28.15;38.38
68669;BME280;55652;49.454;7.798;2022-07-06T19:41:24;99282.66;;;28.14;38.48
68669;BME280;55652;49.454;7.798;2022-07-06T19:43:50;99293.09;;;28.12;38.53
68669;BME280;55652;49.454;7.798;2022-07-06T19:46:16;99293.91;;;28.07;38.50
68669;BME280;55652;49.454;7.798;2022-07-06T19:48:42;99293.34;;;28.16;38.32
68669;BME280;55652;49.454;7.798;2022-07-06T19:51:07;99295.00;;;28.17;38.24
68669;BME280;55652;49.454;7.798;2022-07-06T19:53:36;99300.78;;;28.15;38.87
68669;BME280;55652;49.454;7.798;2022-07-06T19:56:02;99298.84;;;28.16;38.81
68669;BME280;55652;49.454;7.798;2022-07-06T19:58:27;99297.75;;;28.17;38.88
68669;BME280;55652;49.454;7.798;2022-07-06T20:00:53;99301.03;;;28.14;38.87
68669;BME280;55652;49.454;7.798;2022-07-06T20:03:23;99309.28;;;28.14;38.82
68669;BME280;55652;49.454;7.798;2022-07-06T20:05:51;99299.06;;;28.24;38.91
68669;BME280;55652;49.454;7.798;2022-07-06T20:08:16;99305.94;;;28.22;38.90
68669;BME280;55652;49.454;7.798;2022-07-06T20:10:42;99304.84;;;28.28;40.28
68669;BME280;55652;49.454;7.798;2022-07-06T20:13:07;99319.66;;;28.37;39.10
68669;BME280;55652;49.454;7.798;2022-07-06T20:15:33;99313.34;;;28.31;39.17
68669;BME280;55652;49.454;7.798;2022-07-06T20:18:02;99310.31;;;28.33;39.64
68669;BME280;55652;49.454;7.798;2022-07-06T20:20:28;99312.50;;;28.36;40.08
68669;BME280;55652;49.454;7.798;2022-07-06T20:22:54;99312.50;;;28.41;40.63
68669;BME280;55652;49.454;7.798;2022-07-06T20:25:19;99311.38;;;28.42;39.88
68669;BME280;55652;49.454;7.798;2022-07-06T20:27:45;99309.19;;;28.39;40.24
68669;BME280;55652;49.454;7.798;2022-07-06T20:30:11;99317.44;;;28.39;40.14
68669;BME280;55652;49.454;7.798;2022-07-06T20:32:38;99318.28;;;28.45;40.06
68669;BME280;55652;49.454;7.798;2022-07-06T20:35:07;99313.31;;;28.42;40.83
68669;BME280;55652;49.454;7.798;2022-07-06T20:37:33;99312.75;;;28.45;40.01
68669;BME280;55652;49.454;7.798;2022-07-06T20:39:59;99312.75;;;28.45;40.68
68669;BME280;55652;49.454;7.798;2022-07-06T20:42:24;99320.75;;;28.46;41.35
68669;BME280;55652;49.454;7.798;2022-07-06T20:44:49;99319.88;;;28.51;40.94
68669;BME280;55652;49.454;7.798;2022-07-06T20:47:15;99318.00;;;28.46;41.74
68669;BME280;55652;49.454;7.798;2022-07-06T20:49:42;99318.56;;;28.38;40.98
68669;BME280;55652;49.454;7.798;2022-07-06T20:52:07;99324.59;;;28.45;41.41
68669;BME280;55652;49.454;7.798;2022-07-06T20:54:33;99319.09;;;28.45;41.17
68669;BME280;55652;49.454;7.798;2022-07-06T20:56:58;99322.38;;;28.42;40.72
68669;BME280;55652;49.454;7.798;2022-07-06T20:59:24;99312.75;;;28.45;41.62
68669;BME280;55652;49.454;7.798;2022-07-06T21:01:50;99325.13;;;28.47;41.39
68669;BME280;55652;49.454;7.798;2022-07-06T21:04:15;99325.13;;;28.47;41.43
68669;BME280;55652;49.454;7.798;2022-07-06T21:06:40;99321.81;;;28.50;41.28
68669;BME280;55652;49.454;7.798;2022-07-06T21:09:06;99319.06;;;28.50;41.07
68669;BME280;55652;49.454;7.798;2022-07-06T21:11:31;99316.59;;;28.54;41.18
68669;BME280;55652;49.454;7.798;2022-07-06T21:13:57;99312.47;;;28.51;41.28
68669;BME280;55652;49.454;7.798;2022-07-06T21:16:22;99317.44;;;28.49;41.44
68669;BME280;55652;49.454;7.798;2022-07-06T21:18:48;99317.44;;;28.44;41.91
68669;BME280;55652;49.454;7.798;2022-07-06T21:21:13;99318.50;;;28.48;41.57
68669;BME280;55652;49.454;7.798;2022-07-06T21:23:39;99314.91;;;28.53;41.64
68669;BME280;55652;49.454;7.798;2022-07-06T21:26:06;99309.19;;;28.49;41.43
68669;BME280;55652;49.454;7.798;2022-07-06T21:28:33;99309.72;;;28.51;41.32
